createdAt,value
2018-09-10T00:01:37.907Z,98371.91
2018-09-10T00:04:07.490Z,98375.11
2018-09-10T00:06:36.803Z,98370.20
2018-09-10T00:09:09.750Z,98374.70
2018-09-10T00:11:39.419Z,98370.59
2018-09-10T00:14:09.895Z,98377.09
2018-09-10T00:16:39.302Z,98375.73
2018-09-10T00:19:08.758Z,98376.88
2018-09-10T00:21:38.151Z,98381.47
2018-09-10T00:24:07.413Z,98384.69
2018-09-10T00:26:36.702Z,98389.97
2018-09-10T00:29:06.059Z,98381.59
2018-09-10T00:31:35.198Z,98383.09
2018-09-10T00:34:04.478Z,98384.36
2018-09-10T00:36:33.781Z,98374.30
2018-09-10T00:39:03.129Z,98381.05
2018-09-10T00:41:32.429Z,98379.52
2018-09-10T00:44:01.780Z,98377.63
2018-09-10T00:46:31.106Z,98376.45
2018-09-10T00:49:00.425Z,98379.80
2018-09-10T00:51:29.691Z,98378.92
2018-09-10T00:53:58.963Z,98384.27
2018-09-10T00:56:28.263Z,98383.28
2018-09-10T00:58:57.530Z,98391.09
2018-09-10T01:01:26.827Z,98385.49
2018-09-10T01:03:56.192Z,98388.27
2018-09-10T01:06:25.490Z,98382.25
2018-09-10T01:08:54.757Z,98383.28
2018-09-10T01:11:24.196Z,98386.94
2018-09-10T01:13:53.690Z,98387.33
2018-09-10T01:16:22.992Z,98388.02
2018-09-10T01:18:52.271Z,98381.92
2018-09-10T01:21:21.576Z,98373.38
2018-09-10T01:23:50.955Z,98381.89
2018-09-10T01:26:20.376Z,98378.22
2018-09-10T01:28:49.703Z,98373.11
2018-09-10T01:31:19.002Z,98369.50
2018-09-10T01:33:53.525Z,98367.12
2018-09-10T01:36:22.906Z,98363.58
2018-09-10T01:38:52.243Z,98361.72
2018-09-10T01:41:21.606Z,98358.24
2018-09-10T01:43:51.443Z,98361.36
2018-09-10T01:46:20.790Z,98362.31
2018-09-10T01:48:50.155Z,98370.05
2018-09-10T01:51:19.638Z,98357.59
2018-09-10T01:53:48.716Z,98360.68
2018-09-10T01:56:18.346Z,98357.69
2018-09-10T01:58:47.732Z,98359.11
2018-09-10T02:01:17.221Z,98361.38
2018-09-10T02:03:46.639Z,98358.27
2018-09-10T02:06:16.018Z,98355.20
2018-09-10T02:08:45.362Z,98354.13
2018-09-10T02:11:14.774Z,98352.10
2018-09-10T02:13:44.120Z,98352.77
2018-09-10T02:16:16.527Z,98358.09
2018-09-10T02:18:46.998Z,98357.63
2018-09-10T02:21:16.860Z,98354.63
2018-09-10T02:23:46.273Z,98363.22
2018-09-10T02:26:15.559Z,98368.41
2018-09-10T02:28:44.893Z,98362.70
2018-09-10T02:31:14.229Z,98365.73
2018-09-10T02:33:43.716Z,98370.59
2018-09-10T02:36:13.157Z,98371.92
2018-09-10T02:38:42.623Z,98367.14
2018-09-10T02:41:11.872Z,98369.33
2018-09-10T02:43:41.209Z,98378.55
2018-09-10T02:46:10.577Z,98380.39
2018-09-10T02:48:39.982Z,98382.45
2018-09-10T02:51:09.328Z,98376.17
2018-09-10T02:53:38.714Z,98373.84
2018-09-10T02:56:08.090Z,98377.02
2018-09-10T02:58:37.429Z,98375.80
2018-09-10T03:01:06.789Z,98374.99
2018-09-10T03:03:36.174Z,98377.91
2018-09-10T03:06:05.574Z,98374.25
2018-09-10T03:08:35.549Z,98383.17
2018-09-10T03:11:04.927Z,98374.84
2018-09-10T03:13:34.322Z,98372.02
2018-09-10T03:16:03.665Z,98365.42
2018-09-10T03:18:33.038Z,98367.34
2018-09-10T03:21:02.580Z,98368.68
2018-09-10T03:23:31.928Z,98365.02
2018-09-10T03:26:01.357Z,98361.42
2018-09-10T03:28:30.878Z,98359.35
2018-09-10T03:31:00.315Z,98357.17
2018-09-10T03:33:29.666Z,98349.23
2018-09-10T03:35:59.080Z,98351.56
2018-09-10T03:38:28.668Z,98352.02
2018-09-10T03:40:58.100Z,98346.33
2018-09-10T03:43:27.854Z,98353.30
2018-09-10T03:45:57.331Z,98356.30
2018-09-10T03:48:26.768Z,98359.55
2018-09-10T03:50:56.151Z,98362.73
2018-09-10T03:53:25.491Z,98369.78
2018-09-10T03:55:54.814Z,98374.25
2018-09-10T03:58:24.171Z,98375.64
2018-09-10T04:00:53.559Z,98387.32
2018-09-10T04:03:22.877Z,98389.55
2018-09-10T04:05:52.267Z,98388.83
2018-09-10T04:08:21.645Z,98384.22
2018-09-10T04:10:50.989Z,98391.96
2018-09-10T04:13:20.344Z,98388.66
2018-09-10T04:15:49.721Z,98389.17
2018-09-10T04:18:19.049Z,98386.98
2018-09-10T04:20:48.448Z,98387.67
2018-09-10T04:23:17.790Z,98393.86
2018-09-10T04:25:47.253Z,98390.68
2018-09-10T04:28:16.554Z,98391.84
2018-09-10T04:30:45.901Z,98388.91
2018-09-10T04:33:15.250Z,98388.22
2018-09-10T04:35:44.635Z,98389.08
2018-09-10T04:38:14.002Z,98397.36
2018-09-10T04:40:43.506Z,98395.05
2018-09-10T04:43:12.949Z,98384.61
2018-09-10T04:45:42.377Z,98390.58
2018-09-10T04:48:11.740Z,98389.81
2018-09-10T04:50:41.157Z,98394.27
2018-09-10T04:53:10.530Z,98395.05
2018-09-10T04:55:39.940Z,98391.27
2018-09-10T04:58:09.305Z,98398.87
2018-09-10T05:00:38.677Z,98404.23
2018-09-10T05:03:08.149Z,98412.70
2018-09-10T05:05:38.431Z,98422.06
2018-09-10T05:08:07.816Z,98419.05
2018-09-10T05:10:37.413Z,98422.45
2018-09-10T05:13:06.782Z,98425.20
2018-09-10T05:15:36.271Z,98425.50
2018-09-10T05:18:05.645Z,98410.95
2018-09-10T05:20:35.006Z,98416.98
2018-09-10T05:23:04.952Z,98423.22
2018-09-10T05:25:34.309Z,98426.53
2018-09-10T05:28:03.763Z,98426.95
2018-09-10T05:30:33.119Z,98431.63
2018-09-10T05:33:02.481Z,98435.73
2018-09-10T05:35:31.945Z,98436.64
2018-09-10T05:38:01.266Z,98439.13
2018-09-10T05:40:30.630Z,98445.16
2018-09-10T05:43:00.009Z,98454.02
2018-09-10T05:45:29.388Z,98441.89
2018-09-10T05:47:58.890Z,98446.16
2018-09-10T05:50:28.341Z,98443.02
2018-09-10T05:52:57.863Z,98448.05
2018-09-10T05:55:27.457Z,98449.38
2018-09-10T05:57:56.914Z,98457.92
2018-09-10T06:00:26.526Z,98459.69
2018-09-10T06:02:56.569Z,98454.72
2018-09-10T06:05:26.136Z,98460.63
2018-09-10T06:07:55.651Z,98458.58
2018-09-10T06:10:25.535Z,98453.98
2018-09-10T06:12:54.948Z,98452.99
2018-09-10T06:15:24.411Z,98466.33
2018-09-10T06:17:53.883Z,98458.11
2018-09-10T06:20:23.469Z,98459.41
2018-09-10T06:22:52.987Z,98454.54
2018-09-10T06:25:22.445Z,98454.09
2018-09-10T06:27:52.016Z,98460.44
2018-09-10T06:30:21.470Z,98459.11
2018-09-10T06:32:50.877Z,98457.34
2018-09-10T06:35:20.349Z,98456.73
2018-09-10T06:37:50.246Z,98464.70
2018-09-10T06:40:19.651Z,98457.34
2018-09-10T06:42:49.128Z,98465.47
2018-09-10T06:45:18.744Z,98463.12
2018-09-10T06:47:48.382Z,98460.47
2018-09-10T06:50:17.809Z,98467.59
2018-09-10T06:52:47.236Z,98472.78
2018-09-10T06:55:16.630Z,98470.16
2018-09-10T06:57:46.195Z,98468.63
2018-09-10T07:00:15.678Z,98458.98
2018-09-10T07:02:45.278Z,98461.14
2018-09-10T07:05:14.643Z,98459.01
2018-09-10T07:07:44.180Z,98468.45
2018-09-10T07:10:13.550Z,98473.60
2018-09-10T07:12:43.032Z,98476.53
2018-09-10T07:15:12.372Z,98480.81
2018-09-10T07:17:41.743Z,98481.88
2018-09-10T07:20:11.179Z,98484.30
2018-09-10T07:22:40.581Z,98492.54
2018-09-10T07:25:09.927Z,98493.30
2018-09-10T07:27:39.274Z,98492.46
2018-09-10T07:30:08.689Z,98493.20
2018-09-10T07:32:38.075Z,98495.82
2018-09-10T07:35:07.572Z,98494.41
2018-09-10T07:37:36.926Z,98486.08
2018-09-10T07:40:06.387Z,98486.56
2018-09-10T07:42:35.918Z,98491.69
2018-09-10T07:45:05.290Z,98496.00
2018-09-10T07:47:34.607Z,98495.42
2018-09-10T07:50:03.942Z,98503.38
2018-09-10T07:52:33.233Z,98506.07
2018-09-10T07:55:02.632Z,98502.72
2018-09-10T07:57:31.990Z,98506.58
2018-09-10T08:00:01.621Z,98501.50
2018-09-10T08:02:31.014Z,98506.77
2018-09-10T08:05:00.567Z,98510.27
2018-09-10T08:07:29.922Z,98517.77
2018-09-10T08:09:59.314Z,98511.27
2018-09-10T08:12:28.714Z,98510.63
2018-09-10T08:14:58.087Z,98504.86
2018-09-10T08:17:27.479Z,98510.85
2018-09-10T08:19:56.931Z,98511.01
2018-09-10T08:22:26.272Z,98512.91
2018-09-10T08:24:55.697Z,98507.23
2018-09-10T08:27:25.043Z,98510.27
2018-09-10T08:29:54.403Z,98507.45
2018-09-10T08:32:23.716Z,98513.16
2018-09-10T08:34:53.195Z,98510.75
2018-09-10T08:37:22.528Z,98513.57
2018-09-10T08:39:52.069Z,98518.52
2018-09-10T08:42:21.444Z,98524.91
2018-09-10T08:44:50.931Z,98527.23
2018-09-10T08:47:20.351Z,98520.23
2018-09-10T08:49:49.785Z,98517.97
2018-09-10T08:52:19.210Z,98528.75
2018-09-10T08:54:48.760Z,98525.42
2018-09-10T08:57:18.036Z,98525.98
2018-09-10T08:59:47.389Z,98523.73
2018-09-10T09:02:16.756Z,98513.83
2018-09-10T09:04:46.170Z,98521.53
2018-09-10T09:07:15.620Z,98522.71
2018-09-10T09:09:45.027Z,98522.72
2018-09-10T09:12:14.466Z,98518.48
2018-09-10T09:14:43.972Z,98516.66
2018-09-10T09:17:13.511Z,98519.89
2018-09-10T09:19:42.922Z,98511.33
2018-09-10T09:22:12.655Z,98511.80
2018-09-10T09:24:42.078Z,98515.37
2018-09-10T09:27:11.473Z,98512.63
2018-09-10T09:29:40.900Z,98520.99
2018-09-10T09:32:10.291Z,98511.53
2018-09-10T09:34:44.650Z,98508.48
2018-09-10T09:37:20.141Z,98509.03
2018-09-10T09:39:54.473Z,98509.69
2018-09-10T09:44:33.782Z,98510.24
2018-09-10T09:47:03.207Z,98502.33
2018-09-10T09:49:32.627Z,98504.50
2018-09-10T09:52:02.058Z,98506.47
2018-09-10T09:54:31.413Z,98504.20
2018-09-10T09:57:00.839Z,98504.78
2018-09-10T09:59:30.209Z,98512.97
2018-09-10T10:02:04.829Z,98498.69
2018-09-10T10:04:34.344Z,98495.73
2018-09-10T10:07:03.724Z,98489.58
2018-09-10T10:09:33.077Z,98488.34
2018-09-10T10:12:02.571Z,98487.53
2018-09-10T10:14:31.835Z,98480.47
2018-09-10T10:17:01.242Z,98478.45
2018-09-10T10:19:30.753Z,98482.04
2018-09-10T10:22:00.245Z,98474.42
2018-09-10T10:24:29.603Z,98483.24
2018-09-10T10:26:58.961Z,98494.47
2018-09-10T10:29:28.388Z,98492.53
2018-09-10T10:31:57.758Z,98493.17
2018-09-10T10:34:27.212Z,98490.22
2018-09-10T10:36:56.557Z,98492.08
2018-09-10T10:39:25.886Z,98487.80
2018-09-10T10:41:55.204Z,98500.39
2018-09-10T10:44:24.524Z,98488.33
2018-09-10T10:46:53.822Z,98486.06
2018-09-10T10:49:23.130Z,98488.09
2018-09-10T10:51:52.427Z,98485.58
2018-09-10T10:54:21.733Z,98489.46
2018-09-10T10:56:51.007Z,98489.27
2018-09-10T10:59:20.307Z,98485.23
2018-09-10T11:01:50.427Z,98487.81
2018-09-10T11:04:19.930Z,98487.09
2018-09-10T11:06:49.532Z,98488.95
2018-09-10T11:09:18.925Z,98491.21
2018-09-10T11:11:48.334Z,98488.36
2018-09-10T11:14:17.770Z,98481.05
2018-09-10T11:16:47.118Z,98476.77
2018-09-10T11:19:16.469Z,98474.36
2018-09-10T11:21:45.857Z,98469.99
2018-09-10T11:24:15.237Z,98461.98
2018-09-10T11:26:44.535Z,98468.67
2018-09-10T11:29:14.010Z,98459.10
2018-09-10T11:31:44.415Z,98462.75
2018-09-10T11:34:15.165Z,98464.91
2018-09-10T11:36:45.264Z,98466.42
2018-09-10T11:39:16.164Z,98460.00
2018-09-10T11:41:47.086Z,98459.70
2018-09-10T11:44:17.551Z,98472.45
2018-09-10T11:46:47.808Z,98467.75
2018-09-10T11:49:18.297Z,98473.25
2018-09-10T11:51:47.843Z,98473.14
2018-09-10T11:54:17.167Z,98468.67
2018-09-10T11:56:46.417Z,98468.82
2018-09-10T11:59:15.739Z,98461.17
2018-09-10T12:01:45.158Z,98446.34
2018-09-10T12:04:14.470Z,98447.27
2018-09-10T12:06:43.750Z,98445.13
2018-09-10T12:09:13.063Z,98455.45
2018-09-10T12:11:42.357Z,98451.47
2018-09-10T12:14:11.905Z,98450.09
2018-09-10T12:16:41.257Z,98451.36
2018-09-10T12:19:10.716Z,98453.19
2018-09-10T12:21:40.092Z,98442.47
2018-09-10T12:24:09.413Z,98442.59
2018-09-10T12:26:38.729Z,98432.52
2018-09-10T12:29:08.029Z,98438.37
2018-09-10T12:31:37.415Z,98438.27
2018-09-10T12:34:06.837Z,98436.37
2018-09-10T12:36:36.225Z,98428.29
2018-09-10T12:39:09.067Z,98433.56
2018-09-10T12:41:38.521Z,98430.28
2018-09-10T12:44:08.243Z,98417.59
2018-09-10T12:46:37.843Z,98416.83
2018-09-10T12:49:07.152Z,98412.43
2018-09-10T12:51:36.705Z,98407.11
2018-09-10T12:54:06.542Z,98400.20
2018-09-10T12:56:35.972Z,98399.80
2018-09-10T12:59:05.401Z,98407.66
2018-09-10T13:01:34.945Z,98401.24
2018-09-10T13:04:04.421Z,98402.61
2018-09-10T13:06:33.849Z,98403.31
2018-09-10T13:09:03.657Z,98392.43
2018-09-10T13:11:33.102Z,98386.82
2018-09-10T13:14:02.804Z,98383.30
2018-09-10T13:16:32.258Z,98385.03
2018-09-10T13:19:01.669Z,98384.00
2018-09-10T13:21:31.091Z,98390.81
2018-09-10T13:24:00.442Z,98383.30
2018-09-10T13:26:29.844Z,98381.31
2018-09-10T13:28:59.195Z,98373.61
2018-09-10T13:31:28.567Z,98376.67
2018-09-10T13:33:57.903Z,98385.19
2018-09-10T13:36:27.289Z,98382.95
2018-09-10T13:38:56.599Z,98376.91
2018-09-10T13:41:25.962Z,98387.55
2018-09-10T13:43:59.375Z,98378.50
2018-09-10T13:46:28.745Z,98376.16
2018-09-10T13:48:58.132Z,98374.31
2018-09-10T13:51:27.663Z,98375.51
2018-09-10T13:53:57.078Z,98368.80
2018-09-10T13:56:26.537Z,98362.78
2018-09-10T13:58:55.927Z,98363.83
2018-09-10T14:01:25.803Z,98370.33
2018-09-10T14:03:55.335Z,98369.13
2018-09-10T14:06:24.840Z,98363.58
2018-09-10T14:08:54.313Z,98358.77
2018-09-10T14:11:23.897Z,98361.34
2018-09-10T14:13:53.366Z,98352.14
2018-09-10T14:16:22.861Z,98354.02
2018-09-10T14:18:52.291Z,98355.54
2018-09-10T14:21:21.795Z,98361.73
2018-09-10T14:23:52.385Z,98366.58
2018-09-10T14:26:23.025Z,98362.91
2018-09-10T14:28:52.915Z,98361.35
2018-09-10T14:31:24.286Z,98359.41
2018-09-10T14:33:53.907Z,98363.25
2018-09-10T14:36:23.687Z,98362.53
2018-09-10T14:38:53.141Z,98357.77
2018-09-10T14:41:22.652Z,98349.27
2018-09-10T14:43:53.136Z,98356.02
2018-09-10T14:46:22.654Z,98352.28
2018-09-10T14:48:52.128Z,98353.36
2018-09-10T14:51:21.700Z,98341.00
2018-09-10T14:53:51.829Z,98343.18
2018-09-10T14:56:21.673Z,98343.84
2018-09-10T14:58:51.329Z,98340.88
2018-09-10T15:01:20.822Z,98343.30
2018-09-10T15:03:51.448Z,98339.41
2018-09-10T15:06:21.070Z,98336.01
2018-09-10T15:08:50.880Z,98337.23
2018-09-10T15:11:20.379Z,98336.27
2018-09-10T15:13:50.566Z,98338.53
2018-09-10T15:16:20.113Z,98339.11
2018-09-10T15:18:49.931Z,98344.88
2018-09-10T15:21:20.307Z,98340.00
2018-09-10T15:23:51.904Z,98336.01
2018-09-10T15:26:21.944Z,98340.81
2018-09-10T15:28:52.402Z,98335.84
2018-09-10T15:31:21.874Z,98339.53
2018-09-10T15:33:51.521Z,98334.74
2018-09-10T15:36:21.074Z,98337.38
2018-09-10T15:38:50.528Z,98336.12
2018-09-10T15:41:20.197Z,98342.75
2018-09-10T15:43:49.648Z,98339.51
2018-09-10T15:46:19.180Z,98340.43
2018-09-10T15:48:49.009Z,98344.50
2018-09-10T15:51:18.617Z,98349.13
2018-09-10T15:53:48.124Z,98359.92
2018-09-10T15:56:17.773Z,98366.39
2018-09-10T15:58:47.372Z,98362.05
2018-09-10T16:01:17.152Z,98362.69
2018-09-10T16:03:46.762Z,98365.20
2018-09-10T16:06:16.306Z,98368.03
2018-09-10T16:08:46.118Z,98363.95
2018-09-10T16:11:15.643Z,98365.66
2018-09-10T16:13:45.299Z,98367.33
2018-09-10T16:16:14.996Z,98367.33
2018-09-10T16:18:44.566Z,98364.69
2018-09-10T16:21:14.080Z,98359.10
2018-09-10T16:23:43.697Z,98365.46
2018-09-10T16:26:13.227Z,98369.94
2018-09-10T16:28:42.763Z,98370.57
2018-09-10T16:31:12.443Z,98374.12
2018-09-10T16:33:42.058Z,98367.79
2018-09-10T16:36:11.553Z,98374.15
2018-09-10T16:38:41.005Z,98371.52
2018-09-10T16:41:10.553Z,98370.58
2018-09-10T16:43:41.716Z,98380.51
2018-09-10T16:46:13.761Z,98372.72
2018-09-10T16:48:46.665Z,98379.93
2018-09-10T16:51:19.497Z,98376.30
2018-09-10T16:53:49.188Z,98381.41
2018-09-10T16:56:18.954Z,98380.77
2018-09-10T16:58:50.189Z,98383.39
2018-09-10T17:01:25.626Z,98382.59
2018-09-10T17:03:57.052Z,98377.00
2018-09-10T17:06:27.280Z,98378.13
2018-09-10T17:08:56.729Z,98364.94
2018-09-10T17:11:26.938Z,98372.44
2018-09-10T17:13:56.619Z,98372.20
2018-09-10T17:16:26.977Z,98364.51
2018-09-10T17:21:39.640Z,98365.27
2018-09-10T17:24:09.034Z,98365.48
2018-09-10T17:26:38.312Z,98369.42
2018-09-10T17:29:07.650Z,98374.09
2018-09-10T17:31:37.020Z,98377.10
2018-09-10T17:34:06.538Z,98375.27
2018-09-10T17:36:35.887Z,98375.89
2018-09-10T17:39:09.824Z,98384.77
2018-09-10T17:41:39.119Z,98387.20
2018-09-10T17:44:08.455Z,98383.75
2018-09-10T17:46:37.837Z,98384.95
2018-09-10T17:49:09.503Z,98391.38
2018-09-10T17:51:39.085Z,98391.68
2018-09-10T17:54:08.389Z,98396.86
2018-09-10T17:56:37.867Z,98400.42
2018-09-10T17:59:07.228Z,98394.05
2018-09-10T18:01:36.573Z,98396.81
2018-09-10T18:04:05.894Z,98390.92
2018-09-10T18:06:35.198Z,98390.08
2018-09-10T18:09:06.536Z,98394.41
2018-09-10T18:11:35.903Z,98395.52
2018-09-10T18:14:05.202Z,98398.63
2018-09-10T18:16:34.555Z,98408.16
2018-09-10T18:19:04.335Z,98397.17
2018-09-10T18:21:34.511Z,98401.11
2018-09-10T18:24:04.493Z,98401.22
2018-09-10T18:26:36.883Z,98402.56
2018-09-10T18:29:06.178Z,98404.12
2018-09-10T18:31:35.491Z,98406.05
2018-09-10T18:34:04.851Z,98408.12
2018-09-10T18:36:34.203Z,98404.19
2018-09-10T18:39:03.692Z,98410.97
2018-09-10T18:41:33.207Z,98402.63
2018-09-10T18:44:02.476Z,98415.27
2018-09-10T18:46:31.750Z,98409.45
2018-09-10T18:49:04.142Z,98411.97
2018-09-10T18:51:34.621Z,98413.23
2018-09-10T18:54:03.955Z,98420.05
2018-09-10T18:56:33.268Z,98420.27
2018-09-10T18:59:03.394Z,98427.44
2018-09-10T19:01:32.772Z,98427.31
2018-09-10T19:04:02.038Z,98431.46
2018-09-10T19:06:31.373Z,98433.68
2018-09-10T19:09:00.703Z,98427.47
2018-09-10T19:11:33.472Z,98434.26
2018-09-10T19:14:06.162Z,98426.22
2018-09-10T19:16:38.453Z,98441.87
2018-09-10T19:19:07.925Z,98440.52
2018-09-10T19:21:37.319Z,98438.13
2018-09-10T19:24:06.645Z,98438.90
2018-09-10T19:26:36.242Z,98441.06
2018-09-10T19:29:05.678Z,98441.39
2018-09-10T19:31:35.803Z,98443.40
2018-09-10T19:34:05.282Z,98445.75
2018-09-10T19:36:34.607Z,98448.41
2018-09-10T19:39:06.648Z,98444.47
2018-09-10T19:41:35.912Z,98444.75
2018-09-10T19:44:05.385Z,98442.08
2018-09-10T19:46:34.747Z,98439.96
2018-09-10T19:49:04.195Z,98439.49
2018-09-10T19:51:33.521Z,98437.94
2018-09-10T19:54:04.212Z,98433.92
2018-09-10T19:56:33.765Z,98438.30
2018-09-10T19:59:05.333Z,98438.60
2018-09-10T20:01:35.695Z,98437.80
2018-09-10T20:04:05.105Z,98439.41
2018-09-10T20:06:35.655Z,98445.64
2018-09-10T20:09:07.731Z,98441.05
2018-09-10T20:11:37.106Z,98441.64
2018-09-10T20:14:07.718Z,98445.20
2018-09-10T20:16:37.068Z,98458.14
2018-09-10T20:19:06.778Z,98461.95
2018-09-10T20:21:36.181Z,98463.03
2018-09-10T20:24:05.668Z,98467.39
2018-09-10T20:26:35.483Z,98468.47
2018-09-10T20:29:04.864Z,98467.89
2018-09-10T20:31:34.142Z,98469.23
2018-09-10T20:34:05.889Z,98476.75
2018-09-10T20:36:36.335Z,98492.20
2018-09-10T20:39:10.964Z,98500.83
2018-09-10T20:41:40.369Z,98504.33
2018-09-10T20:44:09.909Z,98501.91
2018-09-10T20:46:39.634Z,98504.05
2018-09-10T20:49:09.002Z,98503.56
2018-09-10T20:51:38.268Z,98503.84
2018-09-10T20:54:07.568Z,98506.80
2018-09-10T20:56:36.798Z,98504.67
2018-09-10T20:59:06.078Z,98503.34
2018-09-10T21:01:35.315Z,98517.38
2018-09-10T21:04:04.561Z,98520.88
2018-09-10T21:06:33.893Z,98521.68
2018-09-10T21:09:03.397Z,98521.44
2018-09-10T21:11:32.626Z,98518.76
2018-09-10T21:14:01.859Z,98523.87
2018-09-10T21:16:31.151Z,98517.95
2018-09-10T21:19:00.345Z,98522.52
2018-09-10T21:21:29.589Z,98519.27
2018-09-10T21:23:58.884Z,98521.16
2018-09-10T21:26:28.126Z,98516.55
2018-09-10T21:28:57.441Z,98517.09
2018-09-10T21:31:26.666Z,98522.23
2018-09-10T21:33:56.050Z,98516.30
2018-09-10T21:36:25.346Z,98516.06
2018-09-10T21:38:54.757Z,98520.08
2018-09-10T21:41:23.984Z,98520.63
2018-09-10T21:43:53.210Z,98520.09
2018-09-10T21:46:22.481Z,98524.64
2018-09-10T21:48:51.718Z,98519.55
2018-09-10T21:51:20.960Z,98523.30
2018-09-10T21:53:50.277Z,98520.88
2018-09-10T21:56:19.534Z,98522.52
2018-09-10T21:58:48.903Z,98524.40
2018-09-10T22:01:18.146Z,98529.49
2018-09-10T22:03:47.469Z,98526.01
2018-09-10T22:06:16.715Z,98529.51
2018-09-10T22:08:46.547Z,98524.67
2018-09-10T22:11:15.790Z,98531.94
2018-09-10T22:13:45.009Z,98528.68
2018-09-10T22:16:14.318Z,98534.63
2018-09-10T22:18:43.534Z,98533.28
2018-09-10T22:21:12.774Z,98531.66
2018-09-10T22:23:42.019Z,98530.31
2018-09-10T22:26:11.267Z,98530.84
2018-09-10T22:28:40.505Z,98522.78
2018-09-10T22:31:09.754Z,98527.89
2018-09-10T22:33:38.982Z,98526.55
2018-09-10T22:36:08.221Z,98515.53
2018-09-10T22:38:37.475Z,98518.73
2018-09-10T22:41:06.706Z,98516.31
2018-09-10T22:43:35.932Z,98513.09
2018-09-10T22:46:05.173Z,98517.92
2018-09-10T22:48:34.391Z,98520.63
2018-09-10T22:51:03.692Z,98516.60
2018-09-10T22:53:32.927Z,98511.20
2018-09-10T22:56:02.166Z,98514.19
2018-09-10T22:58:31.423Z,98515.53
2018-09-10T23:01:00.730Z,98512.30
2018-09-10T23:03:30.001Z,98506.09
2018-09-10T23:05:59.322Z,98507.41
2018-09-10T23:08:28.659Z,98508.20
2018-09-10T23:10:57.893Z,98514.86
2018-09-10T23:13:27.166Z,98511.55
2018-09-10T23:15:56.406Z,98514.22
2018-09-10T23:18:26.007Z,98514.20
2018-09-10T23:20:55.282Z,98512.11
2018-09-10T23:23:24.623Z,98520.86
2018-09-10T23:25:53.904Z,98524.12
2018-09-10T23:28:23.165Z,98524.11
2018-09-10T23:30:52.430Z,98532.75
2018-09-10T23:33:21.634Z,98532.77
2018-09-10T23:35:50.914Z,98526.29
2018-09-10T23:38:20.188Z,98529.80
2018-09-10T23:40:49.443Z,98543.52
2018-09-10T23:43:18.747Z,98537.33
2018-09-10T23:45:48.031Z,98535.44
2018-09-10T23:48:17.346Z,98538.14
2018-09-10T23:50:46.599Z,98539.75
2018-09-10T23:53:15.923Z,98538.94
2018-09-10T23:55:45.207Z,98535.98
2018-09-10T23:58:14.495Z,98543.79
